This is the latest recevied weather packets stored in our database for station/object KD8LPB. If no packets are shown the sender has not sent any weather packets the latest 10 day(s).
| Time | Temp. | Humidity | Pressure | Rain* | Wind** | Luminosity | Snow |
|---|---|---|---|---|---|---|---|
| 1777894235 | 2.78° C | 98% | 995.9 hPa | 0 mm | - | - | - |
| 1777891541 | 2.22° C | 99% | 996.2 hPa | 0 mm | - | - | - |
| 1777887040 | 1.67° C | 99% | 997 hPa | 0 mm | - | - | - |
| 1777878040 | 2.78° C | 99% | 999 hPa | 0 mm | - | - | - |
| 1777871740 | 5° C | 95% | 1000.1 hPa | 0 mm | - | - | - |
| 1777866346 | 6.11° C | 96% | 1000.3 hPa | 0 mm | - | - | - |
| 1777862736 | 7.22° C | 95% | 1000.7 hPa | 0 mm | - | - | - |
| 1777860038 | 7.22° C | 95% | 1001 hPa | 0 mm | - | - | - |
| 1777853740 | 9.44° C | 84% | 1000.5 hPa | 0 mm | - | - | - |
| 1777851942 | 9.44° C | 84% | 1000.3 hPa | 0 mm | - | - | - |
| 1777841143 | 10° C | 74% | 1000.4 hPa | 0 mm | - | - | - |
| 1777840237 | 11.67° C | 69% | 1000.4 hPa | 0 mm | - | - | - |
| 1777828536 | 7.22° C | 78% | 1003.2 hPa | 0 mm | - | - | - |
| 1777822242 | 6.11° C | 79% | 1004.7 hPa | 0 mm | - | - | - |
| 1777818636 | 5° C | 82% | 1005 hPa | 0 mm | - | - | - |
| 1777814138 | 2.78° C | 86% | 1005.5 hPa | 0 mm | - | - | - |
| 1777809639 | 2.22° C | 86% | 1005.7 hPa | 0 mm | - | - | - |
| 1777808741 | 2.22° C | 85% | 1006 hPa | 0 mm | - | - | - |
| 1777806032 | 1.11° C | 89% | 1006.1 hPa | 0 mm | - | - | - |
| 1777805141 | 1.67° C | 87% | 1006.2 hPa | 0 mm | - | - | - |
| 1777796135 | 1.67° C | 85% | 1008 hPa | 0 mm | - | - | - |
| 1777792537 | 0.56° C | 82% | 1008.7 hPa | 0 mm | - | - | - |
| 1777788043 | 0° C | 81% | 1009.7 hPa | 0 mm | - | - | - |
| 1777780850 | 0° C | 82% | 1010.9 hPa | 0 mm | - | - | - |
| 1777779042 | 0° C | 82% | 1011.3 hPa | 0 mm | - | - | - |
* Rain latest hour (hover to see other rain measurements)
** Current wind speed in m/s (hover to see current wind gust speed)